TimeEDT,TemperatureF,Dew PointF,Humidity,Sea Level PressureIn,VisibilityMPH,Wind Direction,Wind SpeedMPH,Gust SpeedMPH,PrecipitationIn,Events,Conditions,WindDirDegrees,DateUTC
12:53 AM,64.0,57.0,78,29.98,10.0,SSE,4.6,-,N/A,,Partly Cloudy,160,2012-10-25 04:53:00
1:53 AM,62.1,55.9,80,29.97,10.0,SSE,4.6,-,N/A,,Clear,160,2012-10-25 05:53:00
2:53 AM,61.0,55.0,81,29.96,10.0,South,3.5,-,N/A,,Partly Cloudy,170,2012-10-25 06:53:00
3:53 AM,55.0,54.0,96,29.96,8.0,Calm,Calm,-,N/A,,Clear,0,2012-10-25 07:53:00
4:53 AM,55.9,53.1,90,29.96,9.0,Calm,Calm,-,N/A,,Clear,0,2012-10-25 08:53:00
5:53 AM,57.0,53.1,87,29.96,10.0,SE,3.5,-,N/A,,Scattered Clouds,140,2012-10-25 09:53:00
6:53 AM,55.9,53.1,90,29.97,10.0,SSE,5.8,-,N/A,,Scattered Clouds,150,2012-10-25 10:53:00
7:53 AM,55.9,52.0,87,29.97,10.0,South,4.6,-,N/A,,Partly Cloudy,170,2012-10-25 11:53:00
8:53 AM,57.9,53.1,84,29.98,10.0,South,6.9,-,N/A,,Scattered Clouds,170,2012-10-25 12:53:00
9:53 AM,60.8,53.6,77,29.98,10.0,South,8.1,-,N/A,,Partly Cloudy,180,2012-10-25 13:53:00
10:53 AM,66.0,53.1,63,29.96,10.0,South,11.5,17.3,N/A,,Partly Cloudy,190,2012-10-25 14:53:00
11:53 AM,70.0,54.0,57,29.95,10.0,South,11.5,-,N/A,,Partly Cloudy,190,2012-10-25 15:53:00
12:53 PM,72.0,55.0,55,29.93,10.0,South,16.1,23.0,N/A,,Partly Cloudy,180,2012-10-25 16:53:00
1:53 PM,73.9,55.9,53,29.90,10.0,SW,17.3,23.0,N/A,,Mostly Cloudy,220,2012-10-25 17:53:00
2:53 PM,75.0,55.0,50,29.87,10.0,South,15.0,28.8,N/A,,Scattered Clouds,180,2012-10-25 18:53:00
3:53 PM,75.9,53.1,45,29.84,10.0,South,17.3,24.2,N/A,,Scattered Clouds,170,2012-10-25 19:53:00
4:53 PM,75.9,52.0,43,29.84,10.0,South,16.1,24.2,N/A,,Partly Cloudy,180,2012-10-25 20:53:00
5:53 PM,73.9,51.1,45,29.83,10.0,South,15.0,23.0,N/A,,Scattered Clouds,180,2012-10-25 21:53:00
6:53 PM,72.0,50.0,46,29.84,10.0,South,13.8,24.2,N/A,,Mostly Cloudy,190,2012-10-25 22:53:00
7:53 PM,71.1,51.1,49,29.85,10.0,South,8.1,19.6,N/A,,Mostly Cloudy,190,2012-10-25 23:53:00
8:53 PM,70.0,51.1,51,29.86,10.0,South,12.7,18.4,N/A,,Mostly Cloudy,180,2012-10-26 00:53:00
9:53 PM,69.1,52.0,54,29.86,10.0,South,11.5,18.4,N/A,,Scattered Clouds,190,2012-10-26 01:53:00
10:53 PM,69.1,52.0,54,29.84,10.0,South,12.7,19.6,N/A,,Partly Cloudy,190,2012-10-26 02:53:00
11:53 PM,68.0,53.1,59,29.83,10.0,South,15.0,21.9,N/A,,Scattered Clouds,190,2012-10-26 03:53:00